Terminal Aerodrome Forecast
Issued by NWS

Home | Current Version | Previous Version | Text Only | Print | Product List | Glossary On
Versions: 1 2 3 4 5 6 7 8 9 10 11 12 13 14 15 16 17 18 19 20 21 22 23 24 25 26 27 28 29 30 31 32
000
FTUS41 KILN 272300
TAFLUK
TAF
KLUK 272338Z 2800/2824 22010KT P6SM SCT050
     FM280500 VRB03KT 5SM BR SCT025
     FM280900 00000KT 1/2SM FG SCT002
     FM281200 00000KT 3SM BR SCT010
     FM281300 09005KT P6SM SCT035
     FM282300 12004KT P6SM VCSH SCT040=

USA.gov is the U.S. government's official web portal to all federal, state and local government web resources and services.